FACT/CPT METAR and TAF weather

Enter ICAO airport designator
Station Type Date Time Source
FACT METAR 2021/09/28 04:00 UTC NOAA

FACT 280400Z 21001KT 9999 FEW040 09/07 Q1018 NOSIG


Station Type Date Time Source
FACT Decoded METAR 2021/09/28 04:00 UTC NOAA

Cape Town, Cape Town International Airport, South Africa (FACT) 33-59S 018-36E 0M
Sep 28, 2021 - 12:00 AM EDT / 2021.09.28 0400 UTC
Wind: from the SSW (210 degrees) at 1 MPH (1 KT):0
Visibility: greater than 7 mile(s):0
Sky conditions: mostly clear
Temperature: 48 F (9 C)
Dew Point: 44 F (7 C)
Relative Humidity: 87%
Pressure (altimeter): 30.06 in. Hg (1018 hPa)
ob: FACT 280400Z 21001KT 9999 FEW040 09/07 Q1018 NOSIG
cycle: 4

Station Type Date Time Source
FACT TAF 2021/09/27 18:10 UTC NOAA

TAF FACT 271600Z 2718/2824 19012KT 9999 FEW035 TX20/2812Z TN11/2805Z
BECMG 2800/2802 BKN015 PROB40
TEMPO 2803/2806 3000 BR BKN008
FM280700 19012KT 9999 FEW040

Example: see airport list